createdAt,value
2019-05-26T00:00:08.122Z,11.90
2019-05-26T00:02:39.256Z,11.80
2019-05-26T00:05:10.321Z,11.80
2019-05-26T00:07:41.174Z,11.70
2019-05-26T00:10:12.383Z,11.70
2019-05-26T00:12:44.102Z,11.70
2019-05-26T00:15:15.687Z,11.70
2019-05-26T00:17:46.582Z,11.60
2019-05-26T00:20:18.066Z,11.60
2019-05-26T00:22:48.844Z,11.60
2019-05-26T00:25:19.610Z,11.60
2019-05-26T00:27:50.438Z,11.60
2019-05-26T00:30:21.593Z,11.60
2019-05-26T00:32:53.562Z,11.50
2019-05-26T00:35:24.369Z,11.50
2019-05-26T00:37:55.134Z,11.40
2019-05-26T00:40:26.040Z,11.30
2019-05-26T00:42:56.794Z,11.30
2019-05-26T00:45:27.625Z,11.20
2019-05-26T00:47:58.384Z,11.20
2019-05-26T00:50:29.248Z,11.10
2019-05-26T00:53:00.066Z,11.00
2019-05-26T00:55:31.158Z,10.90
2019-05-26T00:58:01.943Z,10.90
2019-05-26T01:00:43.050Z,10.80
2019-05-26T01:03:24.619Z,10.80
2019-05-26T01:05:56.533Z,10.70
2019-05-26T01:08:27.405Z,10.70
2019-05-26T01:11:01.293Z,10.70
2019-05-26T01:13:31.059Z,10.70
2019-05-26T01:16:03.500Z,10.50
2019-05-26T01:18:34.419Z,10.50
2019-05-26T01:21:05.232Z,10.50
2019-05-26T01:23:36.088Z,10.50
2019-05-26T01:26:06.859Z,10.50
2019-05-26T01:28:37.727Z,10.50
2019-05-26T01:31:08.612Z,10.50
2019-05-26T01:33:39.387Z,10.50
2019-05-26T01:36:11.378Z,10.60
2019-05-26T01:38:42.699Z,10.50
2019-05-26T01:41:13.488Z,10.50
2019-05-26T01:43:45.474Z,10.50
2019-05-26T01:46:16.266Z,10.50
2019-05-26T01:48:51.226Z,10.50
2019-05-26T01:51:22.113Z,10.50
2019-05-26T01:53:52.883Z,10.50
2019-05-26T01:56:23.834Z,10.40
2019-05-26T01:58:55.006Z,10.40
2019-05-26T02:01:25.814Z,10.30
2019-05-26T02:03:57.102Z,10.30
2019-05-26T02:06:27.945Z,10.30
2019-05-26T02:08:58.758Z,10.20
2019-05-26T02:11:29.829Z,10.20
2019-05-26T02:14:00.649Z,10.20
2019-05-26T02:16:31.420Z,10.20
2019-05-26T02:19:02.245Z,10.20
2019-05-26T02:21:33.158Z,10.20
2019-05-26T02:24:04.026Z,10.20
2019-05-26T02:26:34.826Z,10.20
2019-05-26T02:29:05.600Z,10.20
2019-05-26T02:31:36.396Z,10.20
2019-05-26T02:34:07.275Z,10.20
2019-05-26T02:36:38.047Z,10.20
2019-05-26T02:39:09.415Z,10.10
2019-05-26T02:41:40.256Z,10.10
2019-05-26T02:44:11.025Z,10.10
2019-05-26T02:46:41.877Z,10.10
2019-05-26T02:49:12.706Z,10.10
2019-05-26T02:51:43.572Z,10.10
2019-05-26T02:54:14.455Z,10.10
2019-05-26T02:56:45.283Z,10.10
2019-05-26T02:59:16.040Z,10.10
2019-05-26T03:02:02.026Z,10.10
2019-05-26T03:04:19.749Z,10.00
2019-05-26T03:06:51.245Z,10.00
2019-05-26T03:09:24.251Z,10.00
2019-05-26T03:11:57.260Z,10.10
2019-05-26T03:14:30.221Z,10.00
2019-05-26T03:17:02.548Z,10.00
2019-05-26T03:19:35.859Z,10.00
2019-05-26T03:22:07.670Z,10.00
2019-05-26T03:24:41.447Z,9.90
2019-05-26T03:27:12.327Z,10.00
2019-05-26T03:29:43.283Z,10.00
2019-05-26T03:32:14.225Z,10.00
2019-05-26T03:34:45.003Z,10.00
2019-05-26T03:37:15.806Z,10.00
2019-05-26T03:39:46.822Z,10.00
2019-05-26T03:42:17.663Z,10.00
2019-05-26T03:44:48.502Z,10.00
2019-05-26T03:47:19.276Z,10.10
2019-05-26T03:49:50.071Z,10.10
2019-05-26T03:52:21.057Z,10.10
2019-05-26T03:54:51.798Z,10.10
2019-05-26T03:57:23.115Z,10.10
2019-05-26T03:59:53.872Z,10.10
2019-05-26T04:02:24.653Z,10.10
2019-05-26T04:04:55.402Z,10.10
2019-05-26T04:07:26.192Z,10.10
2019-05-26T04:10:04.875Z,10.20
2019-05-26T04:12:30.122Z,10.20
2019-05-26T04:15:01.001Z,10.20
2019-05-26T04:17:31.794Z,10.30
2019-05-26T04:20:03.960Z,10.30
2019-05-26T04:22:34.903Z,10.30
2019-05-26T04:25:06.431Z,10.40
2019-05-26T04:27:37.236Z,10.40
2019-05-26T04:30:08.401Z,10.40
2019-05-26T04:32:40.175Z,10.50
2019-05-26T04:35:10.985Z,10.50
2019-05-26T04:37:41.751Z,10.60
2019-05-26T04:40:26.614Z,10.60
2019-05-26T04:42:45.237Z,10.60
2019-05-26T04:45:16.010Z,10.70
2019-05-26T04:47:46.845Z,10.70
2019-05-26T04:50:17.635Z,10.80
2019-05-26T04:53:05.586Z,10.80
2019-05-26T04:55:20.983Z,10.80
2019-05-26T04:57:51.888Z,10.90
2019-05-26T05:00:22.793Z,11.00
2019-05-26T05:02:53.662Z,11.00
2019-05-26T05:05:24.570Z,11.10
2019-05-26T05:07:55.610Z,11.20
2019-05-26T05:10:41.239Z,11.30
2019-05-26T05:12:59.118Z,11.40
2019-05-26T05:15:31.554Z,11.50
2019-05-26T05:18:02.428Z,11.50
2019-05-26T05:20:33.356Z,11.60
2019-05-26T05:23:05.202Z,11.70
2019-05-26T05:25:36.031Z,11.70
2019-05-26T05:28:07.010Z,11.80
2019-05-26T05:30:37.868Z,11.80
2019-05-26T05:33:08.808Z,11.90
2019-05-26T05:35:39.596Z,12.00
2019-05-26T05:38:10.414Z,12.00
2019-05-26T05:40:56.348Z,12.10
2019-05-26T05:43:13.851Z,12.20
2019-05-26T05:45:45.935Z,12.20
2019-05-26T05:48:16.841Z,12.30
2019-05-26T05:50:47.629Z,12.30
2019-05-26T05:53:18.481Z,12.40
2019-05-26T05:55:49.286Z,12.50
2019-05-26T06:00:54.514Z,12.50
2019-05-26T06:03:25.316Z,12.70
2019-05-26T06:05:56.254Z,12.70
2019-05-26T06:08:27.274Z,12.80
2019-05-26T06:11:13.416Z,12.80
2019-05-26T06:13:30.732Z,12.90
2019-05-26T06:16:01.603Z,13.00
2019-05-26T06:18:32.467Z,13.00
2019-05-26T06:21:04.865Z,13.10
2019-05-26T06:23:36.918Z,13.20
2019-05-26T06:26:08.171Z,13.30
2019-05-26T06:28:39.008Z,13.40
2019-05-26T06:31:09.827Z,13.50
2019-05-26T06:33:40.628Z,13.60
2019-05-26T06:36:11.429Z,13.70
2019-05-26T06:38:42.445Z,13.70
2019-05-26T06:41:13.232Z,13.80
2019-05-26T06:43:44.069Z,13.90
2019-05-26T06:46:16.191Z,14.00
2019-05-26T06:48:47.015Z,14.10
2019-05-26T06:51:17.808Z,14.20
2019-05-26T06:53:48.660Z,14.30
2019-05-26T06:56:19.500Z,14.40
2019-05-26T06:58:50.506Z,14.40
2019-05-26T07:01:21.326Z,14.50
2019-05-26T07:03:52.378Z,14.60
2019-05-26T07:06:23.338Z,14.70
2019-05-26T07:08:54.412Z,14.70
2019-05-26T07:11:25.269Z,14.80
2019-05-26T07:13:56.068Z,14.90
2019-05-26T07:16:37.493Z,15.00
2019-05-26T07:18:59.779Z,15.10
2019-05-26T07:21:30.643Z,15.20
2019-05-26T07:24:01.694Z,15.40
2019-05-26T07:26:32.496Z,15.60
2019-05-26T07:29:03.368Z,15.70
2019-05-26T07:31:34.348Z,15.90
2019-05-26T07:34:05.569Z,16.00
2019-05-26T07:36:36.522Z,16.30
2019-05-26T07:39:09.451Z,16.40
2019-05-26T07:41:40.299Z,16.40
2019-05-26T07:44:11.298Z,16.40
2019-05-26T07:46:42.228Z,16.50
2019-05-26T07:49:13.101Z,16.50
2019-05-26T07:51:43.912Z,16.50
2019-05-26T07:54:24.963Z,16.60
2019-05-26T07:56:47.350Z,16.60
2019-05-26T07:59:18.231Z,16.70
2019-05-26T08:01:49.114Z,16.70
2019-05-26T08:04:20.034Z,16.70
2019-05-26T08:06:50.832Z,16.70
2019-05-26T08:09:22.771Z,16.80
2019-05-26T08:11:54.833Z,16.90
2019-05-26T08:14:27.229Z,17.10
2019-05-26T08:16:58.088Z,17.20
2019-05-26T08:19:29.228Z,17.40
2019-05-26T08:22:00.134Z,17.50
2019-05-26T08:24:31.037Z,17.60
2019-05-26T08:27:01.908Z,17.70
2019-05-26T08:29:32.775Z,17.80
2019-05-26T08:32:04.759Z,17.80
2019-05-26T08:34:35.611Z,17.90
2019-05-26T08:37:06.488Z,17.90
2019-05-26T08:39:38.386Z,17.90
2019-05-26T08:42:09.199Z,17.90
2019-05-26T08:44:39.994Z,17.80
2019-05-26T08:47:10.809Z,17.70
2019-05-26T08:49:41.792Z,17.70
2019-05-26T08:52:12.874Z,17.70
2019-05-26T08:54:43.736Z,17.70
2019-05-26T08:57:14.554Z,17.70
2019-05-26T08:59:45.603Z,17.60
2019-05-26T09:02:17.544Z,17.60
2019-05-26T09:04:48.437Z,17.60
2019-05-26T09:07:19.291Z,17.60
2019-05-26T09:09:50.231Z,17.70
2019-05-26T09:12:23.224Z,17.80
2019-05-26T09:14:54.091Z,17.70
2019-05-26T09:17:25.030Z,17.80
2019-05-26T09:19:57.452Z,17.90
2019-05-26T09:22:28.421Z,18.00
2019-05-26T09:24:59.407Z,18.00
2019-05-26T09:27:30.219Z,18.00
2019-05-26T09:30:01.069Z,18.10
2019-05-26T09:32:32.979Z,18.20
2019-05-26T09:35:04.099Z,18.30
2019-05-26T09:37:36.078Z,18.40
2019-05-26T09:40:07.541Z,18.40
2019-05-26T09:42:40.170Z,18.50
2019-05-26T09:45:11.609Z,18.50
2019-05-26T09:47:42.661Z,18.50
2019-05-26T09:50:15.540Z,18.60
2019-05-26T09:52:46.442Z,18.70
2019-05-26T09:55:17.758Z,18.70
2019-05-26T09:57:48.603Z,18.70
2019-05-26T10:00:21.757Z,18.70
2019-05-26T10:02:52.798Z,18.70
2019-05-26T10:05:23.651Z,18.70
2019-05-26T10:07:54.540Z,18.70
2019-05-26T10:10:25.597Z,18.90
2019-05-26T10:12:56.676Z,19.00
2019-05-26T10:15:27.835Z,19.10
2019-05-26T10:17:58.958Z,19.10
2019-05-26T10:20:30.064Z,19.00
2019-05-26T10:23:01.199Z,19.10
2019-05-26T10:25:32.162Z,19.20
2019-05-26T10:28:04.312Z,19.20
2019-05-26T10:30:35.104Z,19.30
2019-05-26T10:33:06.347Z,19.40
2019-05-26T10:35:37.278Z,19.30
2019-05-26T10:38:08.336Z,19.40
2019-05-26T10:40:39.402Z,19.60
2019-05-26T10:43:10.289Z,19.60
2019-05-26T10:45:41.101Z,19.60
2019-05-26T10:48:12.008Z,19.60
2019-05-26T10:50:42.824Z,19.60
2019-05-26T10:53:13.904Z,19.80
2019-05-26T10:55:44.902Z,20.00
2019-05-26T10:58:15.735Z,20.10
2019-05-26T11:00:46.648Z,20.20
2019-05-26T11:03:17.543Z,20.30
2019-05-26T11:05:49.611Z,20.50
2019-05-26T11:08:21.515Z,20.70
2019-05-26T11:10:52.412Z,20.90
2019-05-26T11:13:23.302Z,21.00
2019-05-26T11:15:55.812Z,21.10
2019-05-26T11:18:26.737Z,21.10
2019-05-26T11:20:57.810Z,21.10
2019-05-26T11:23:29.053Z,21.30
2019-05-26T11:25:59.992Z,21.40
2019-05-26T11:28:30.821Z,21.50
2019-05-26T11:31:01.757Z,21.50
2019-05-26T11:33:32.699Z,21.50
2019-05-26T11:36:03.657Z,21.40
2019-05-26T11:38:34.511Z,21.20
2019-05-26T11:41:05.647Z,21.40
2019-05-26T11:43:36.588Z,21.50
2019-05-26T11:46:07.737Z,21.70
2019-05-26T11:48:39.504Z,21.60
2019-05-26T11:51:11.960Z,21.60
2019-05-26T11:53:43.145Z,21.30
2019-05-26T11:56:14.220Z,21.40
2019-05-26T11:58:45.153Z,21.30
2019-05-26T12:01:16.061Z,21.30
2019-05-26T12:03:46.984Z,21.20
2019-05-26T12:06:18.020Z,21.20
2019-05-26T12:08:49.038Z,21.30
2019-05-26T12:11:19.907Z,21.30
2019-05-26T12:13:50.847Z,21.40
2019-05-26T12:16:22.863Z,21.40
2019-05-26T12:18:53.783Z,21.30
2019-05-26T12:21:24.745Z,21.30
2019-05-26T12:23:55.627Z,21.10
2019-05-26T12:26:27.805Z,21.10
2019-05-26T12:28:58.732Z,21.20
2019-05-26T12:31:29.551Z,21.30
2019-05-26T12:34:00.470Z,21.50
2019-05-26T12:36:39.333Z,21.60
2019-05-26T12:39:10.184Z,21.60
2019-05-26T12:41:41.185Z,21.40
2019-05-26T12:44:12.152Z,21.60
2019-05-26T12:46:43.143Z,21.40
2019-05-26T12:49:14.223Z,21.60
2019-05-26T12:51:45.267Z,21.70
2019-05-26T12:54:16.460Z,21.50
2019-05-26T12:56:47.297Z,21.40
2019-05-26T12:59:18.164Z,21.30
2019-05-26T13:01:49.197Z,21.40
2019-05-26T13:04:20.143Z,21.60
2019-05-26T13:06:54.394Z,21.50
2019-05-26T13:09:25.749Z,21.50
2019-05-26T13:11:57.837Z,21.40
2019-05-26T13:14:28.878Z,21.30
2019-05-26T13:17:01.736Z,21.20
2019-05-26T13:19:33.107Z,21.10
2019-05-26T13:22:04.249Z,21.00
2019-05-26T13:24:35.173Z,20.90
2019-05-26T13:27:06.350Z,20.90
2019-05-26T13:29:37.257Z,21.10
2019-05-26T13:32:09.370Z,21.30
2019-05-26T13:34:40.405Z,21.40
2019-05-26T13:37:11.367Z,21.60
2019-05-26T13:39:43.686Z,21.80
2019-05-26T13:42:14.896Z,21.80
2019-05-26T13:44:46.031Z,21.80
2019-05-26T13:47:26.173Z,21.60
2019-05-26T13:49:55.935Z,21.50
2019-05-26T13:52:26.909Z,21.50
2019-05-26T13:54:57.880Z,21.60
2019-05-26T13:57:30.544Z,21.40
2019-05-26T14:00:05.237Z,21.50
2019-05-26T14:02:37.951Z,21.40
2019-05-26T14:05:09.557Z,21.40
2019-05-26T14:07:40.582Z,21.30
2019-05-26T14:10:11.951Z,21.20
2019-05-26T14:12:42.855Z,21.20
2019-05-26T14:15:15.451Z,21.10
2019-05-26T14:17:46.785Z,21.00
2019-05-26T14:20:21.125Z,21.00
2019-05-26T14:22:52.066Z,21.00
2019-05-26T14:25:23.013Z,21.00
2019-05-26T14:27:54.441Z,20.90
2019-05-26T14:30:25.365Z,20.90
2019-05-26T14:32:56.769Z,20.90
2019-05-26T14:35:27.666Z,20.90
2019-05-26T14:37:58.658Z,20.90
2019-05-26T14:40:29.672Z,20.90
2019-05-26T14:43:00.856Z,20.80
2019-05-26T14:45:31.893Z,20.90
2019-05-26T14:48:02.959Z,21.00
2019-05-26T14:50:34.019Z,20.90
2019-05-26T14:53:05.117Z,20.90
2019-05-26T14:55:36.079Z,20.90
2019-05-26T14:58:15.850Z,20.80
2019-05-26T15:00:39.962Z,20.90
2019-05-26T15:03:12.252Z,20.90
2019-05-26T15:05:44.086Z,21.00
2019-05-26T15:08:14.997Z,21.10
2019-05-26T15:10:45.961Z,21.30
2019-05-26T15:13:16.946Z,21.30
2019-05-26T15:15:47.910Z,21.30
2019-05-26T15:18:18.823Z,21.20
2019-05-26T15:20:49.846Z,21.10
2019-05-26T15:23:21.374Z,21.10
2019-05-26T15:25:54.193Z,21.00
2019-05-26T15:28:27.729Z,21.00
2019-05-26T15:30:59.693Z,21.00
2019-05-26T15:33:30.703Z,21.00
2019-05-26T15:36:01.555Z,21.00
2019-05-26T15:38:42.409Z,20.90
2019-05-26T15:41:07.884Z,21.00
2019-05-26T15:43:39.039Z,21.00
2019-05-26T15:46:24.276Z,21.00
2019-05-26T15:48:42.730Z,20.90
2019-05-26T15:51:13.862Z,20.90
2019-05-26T15:53:46.079Z,20.80
2019-05-26T15:56:17.023Z,20.70
2019-05-26T15:58:49.484Z,20.60
2019-05-26T16:01:20.636Z,20.60
2019-05-26T16:03:51.616Z,20.60
2019-05-26T16:06:22.783Z,20.60
2019-05-26T16:08:53.646Z,20.50
2019-05-26T16:11:24.524Z,20.50
2019-05-26T16:13:55.598Z,20.50
2019-05-26T16:16:40.039Z,20.50
2019-05-26T16:18:59.374Z,20.50
2019-05-26T16:21:33.056Z,20.50
2019-05-26T16:24:04.055Z,20.60
2019-05-26T16:26:34.982Z,20.60
2019-05-26T16:29:06.298Z,20.60
2019-05-26T16:31:37.370Z,20.60
2019-05-26T16:34:08.373Z,20.60
2019-05-26T16:36:39.167Z,20.70
2019-05-26T16:39:10.406Z,20.70
2019-05-26T16:41:41.252Z,20.70
2019-05-26T16:44:12.288Z,20.70
2019-05-26T16:46:55.384Z,20.60
2019-05-26T16:49:15.927Z,20.70
2019-05-26T16:51:48.542Z,20.70
2019-05-26T16:54:19.657Z,20.70
2019-05-26T16:56:50.762Z,20.70
2019-05-26T16:59:21.767Z,20.80
2019-05-26T17:01:52.786Z,20.90
2019-05-26T17:04:27.197Z,20.80
2019-05-26T17:06:58.316Z,20.90
2019-05-26T17:09:29.262Z,20.90
2019-05-26T17:12:00.207Z,20.90
2019-05-26T17:14:31.252Z,20.90
2019-05-26T17:17:14.030Z,20.90
2019-05-26T17:19:37.590Z,21.00
2019-05-26T17:22:08.697Z,20.90
2019-05-26T17:24:40.113Z,20.80
2019-05-26T17:27:11.101Z,20.80
2019-05-26T17:29:42.145Z,20.70
2019-05-26T17:32:13.048Z,20.70
2019-05-26T17:34:44.141Z,20.80
2019-05-26T17:37:15.015Z,20.70
2019-05-26T17:39:46.830Z,20.80
2019-05-26T17:42:17.839Z,20.80
2019-05-26T17:44:48.805Z,20.80
2019-05-26T17:47:29.773Z,20.80
2019-05-26T17:49:52.490Z,20.80
2019-05-26T17:52:24.389Z,20.70
2019-05-26T17:54:55.535Z,20.70
2019-05-26T17:57:26.438Z,20.60
2019-05-26T17:59:58.538Z,20.60
2019-05-26T18:02:29.567Z,20.50
2019-05-26T18:05:00.693Z,20.60
2019-05-26T18:07:33.469Z,20.50
2019-05-26T18:10:04.521Z,20.50
2019-05-26T18:12:35.499Z,20.40
2019-05-26T18:15:10.409Z,20.40
2019-05-26T18:17:47.521Z,20.40
2019-05-26T18:20:16.691Z,20.40
2019-05-26T18:22:47.755Z,20.30
2019-05-26T18:25:19.051Z,20.30
2019-05-26T18:27:54.887Z,20.30
2019-05-26T18:30:25.885Z,20.30
2019-05-26T18:32:56.928Z,20.30
2019-05-26T18:35:28.240Z,20.20
2019-05-26T18:37:59.417Z,20.20
2019-05-26T18:40:30.440Z,20.10
2019-05-26T18:43:03.400Z,20.10
2019-05-26T18:45:34.483Z,20.10
2019-05-26T18:48:05.464Z,20.10
2019-05-26T18:50:36.464Z,20.00
2019-05-26T18:53:07.423Z,20.00
2019-05-26T18:55:39.787Z,20.00
2019-05-26T18:58:11.158Z,20.00
2019-05-26T19:00:42.440Z,20.00
2019-05-26T19:03:13.349Z,20.00
2019-05-26T19:05:44.310Z,20.00
2019-05-26T19:08:15.288Z,19.90
2019-05-26T19:10:46.289Z,19.90
2019-05-26T19:13:18.221Z,19.90
2019-05-26T19:15:49.361Z,19.80
2019-05-26T19:18:20.878Z,19.80
2019-05-26T19:20:51.847Z,19.80
2019-05-26T19:23:22.882Z,19.80
2019-05-26T19:25:53.795Z,19.80
2019-05-26T19:28:24.867Z,19.80
2019-05-26T19:30:56.939Z,19.70
2019-05-26T19:33:27.940Z,19.70
2019-05-26T19:35:59.195Z,19.60
2019-05-26T19:38:30.234Z,19.60
2019-05-26T19:41:01.287Z,19.60
2019-05-26T19:43:32.123Z,19.60
2019-05-26T19:46:03.446Z,19.60
2019-05-26T19:48:36.989Z,19.50
2019-05-26T19:51:07.303Z,19.50
2019-05-26T19:53:38.241Z,19.50
2019-05-26T19:56:09.758Z,19.40
2019-05-26T19:58:40.774Z,19.40
2019-05-26T20:01:11.865Z,19.50
2019-05-26T20:03:45.821Z,19.40
2019-05-26T20:06:16.823Z,19.50
2019-05-26T20:08:47.784Z,19.40
2019-05-26T20:11:18.863Z,19.40
2019-05-26T20:13:50.963Z,19.40
2019-05-26T20:16:22.090Z,19.30
2019-05-26T20:18:53.068Z,19.30
2019-05-26T20:21:25.507Z,19.30
2019-05-26T20:23:56.610Z,19.30
2019-05-26T20:26:27.730Z,19.30
2019-05-26T20:28:59.095Z,19.30
2019-05-26T20:31:29.936Z,19.20
2019-05-26T20:34:01.856Z,19.10
2019-05-26T20:36:32.828Z,19.10
2019-05-26T20:39:04.844Z,19.00
2019-05-26T20:41:36.963Z,19.00
2019-05-26T20:44:08.109Z,18.90
2019-05-26T20:46:38.935Z,18.90
2019-05-26T20:49:09.816Z,18.90
2019-05-26T20:51:40.749Z,18.80
2019-05-26T20:54:11.740Z,18.80
2019-05-26T20:56:43.144Z,18.80
2019-05-26T20:59:14.108Z,18.80
2019-05-26T21:01:44.999Z,18.70
2019-05-26T21:04:16.001Z,18.70
2019-05-26T21:06:51.378Z,18.60
2019-05-26T21:09:22.351Z,18.60
2019-05-26T21:11:53.248Z,18.50
2019-05-26T21:14:24.303Z,18.40
2019-05-26T21:16:55.347Z,18.40
2019-05-26T21:19:26.461Z,18.40
2019-05-26T21:21:57.293Z,18.30
2019-05-26T21:24:28.168Z,18.20
2019-05-26T21:26:58.997Z,18.20
2019-05-26T21:29:29.963Z,18.20
2019-05-26T21:32:02.620Z,18.10
2019-05-26T21:34:33.509Z,18.00
2019-05-26T21:37:04.353Z,18.00
2019-05-26T21:39:35.361Z,17.90
2019-05-26T21:42:06.237Z,17.80
2019-05-26T21:44:37.089Z,17.80
2019-05-26T21:47:07.962Z,17.80
2019-05-26T21:49:38.830Z,17.80
2019-05-26T21:52:09.671Z,17.70
2019-05-26T21:54:41.355Z,17.70
2019-05-26T21:57:12.642Z,17.70
2019-05-26T21:59:43.713Z,17.70
2019-05-26T22:02:16.607Z,17.60
2019-05-26T22:04:47.405Z,17.70
2019-05-26T22:07:18.197Z,17.60
2019-05-26T22:09:49.062Z,17.60
2019-05-26T22:12:20.038Z,17.60
2019-05-26T22:14:50.957Z,17.60
2019-05-26T22:17:21.865Z,17.50
2019-05-26T22:19:52.710Z,17.50
2019-05-26T22:22:23.611Z,17.50
2019-05-26T22:24:54.440Z,17.40
2019-05-26T22:27:25.384Z,17.40
2019-05-26T22:29:56.230Z,17.40
2019-05-26T22:32:27.249Z,17.30
2019-05-26T22:34:58.121Z,17.30
2019-05-26T22:37:28.924Z,17.20
2019-05-26T22:39:59.729Z,17.20
2019-05-26T22:42:31.264Z,17.10
2019-05-26T22:45:02.263Z,17.00
2019-05-26T22:47:33.182Z,17.00
2019-05-26T22:50:05.553Z,17.00
2019-05-26T22:52:36.386Z,17.00
2019-05-26T22:55:07.522Z,16.90
2019-05-26T22:57:38.514Z,16.90
2019-05-26T23:00:09.899Z,16.90
2019-05-26T23:02:40.927Z,16.80
2019-05-26T23:05:12.140Z,16.80
2019-05-26T23:07:42.998Z,16.70
2019-05-26T23:10:15.264Z,16.70
2019-05-26T23:12:46.097Z,16.70
2019-05-26T23:15:16.901Z,16.60
2019-05-26T23:17:47.849Z,16.60
2019-05-26T23:20:18.655Z,16.60
2019-05-26T23:22:49.447Z,16.60
2019-05-26T23:25:20.350Z,16.50
2019-05-26T23:27:51.360Z,16.50
2019-05-26T23:30:22.381Z,16.50
2019-05-26T23:32:53.230Z,16.40
2019-05-26T23:35:24.039Z,16.40
2019-05-26T23:37:54.820Z,16.40
2019-05-26T23:40:25.790Z,16.40
2019-05-26T23:42:56.711Z,16.40
2019-05-26T23:45:27.515Z,16.40
2019-05-26T23:47:58.493Z,16.30
2019-05-26T23:50:31.210Z,16.30
2019-05-26T23:53:02.095Z,16.20
2019-05-26T23:55:33.008Z,16.00
2019-05-26T23:58:04.212Z,15.80
